createdAt,value
2023-01-07T00:01:14.721Z,11.57
2023-01-07T00:03:42.041Z,11.23
2023-01-07T00:06:13.682Z,11.60
2023-01-07T00:08:44.345Z,11.03
2023-01-07T00:11:12.920Z,10.50
2023-01-07T00:13:40.434Z,11.77
2023-01-07T00:16:08.812Z,10.70
2023-01-07T00:18:36.464Z,10.07
2023-01-07T00:21:06.951Z,9.97
2023-01-07T00:23:34.976Z,9.43
2023-01-07T00:26:12.945Z,9.00
2023-01-07T00:28:41.659Z,8.67
2023-01-07T00:31:13.143Z,8.53
2023-01-07T00:33:59.419Z,8.07
2023-01-07T00:36:27.782Z,7.87
2023-01-07T00:38:58.529Z,7.67
2023-01-07T00:41:25.811Z,8.10
2023-01-07T00:43:52.891Z,7.67
2023-01-07T00:46:20.889Z,7.63
2023-01-07T00:48:47.976Z,7.37
2023-01-07T00:51:18.035Z,7.53
2023-01-07T00:53:45.142Z,7.93
2023-01-07T00:56:12.540Z,7.10
2023-01-07T00:58:39.610Z,7.53
2023-01-07T01:01:07.131Z,7.67
2023-01-07T01:03:34.703Z,6.90
2023-01-07T01:06:10.352Z,7.40
2023-01-07T01:08:37.689Z,7.40
2023-01-07T01:11:05.848Z,7.03
2023-01-07T01:13:33.665Z,7.30
2023-01-07T01:16:00.951Z,6.63
2023-01-07T01:18:28.248Z,6.20
2023-01-07T01:20:55.280Z,7.10
2023-01-07T01:23:22.797Z,6.30
2023-01-07T01:25:49.885Z,5.80
2023-01-07T01:28:16.929Z,6.53
2023-01-07T01:30:43.997Z,6.37
2023-01-07T01:33:11.089Z,5.80
2023-01-07T01:35:41.657Z,5.83
2023-01-07T01:38:08.862Z,5.70
2023-01-07T01:40:35.986Z,5.90
2023-01-07T01:43:03.092Z,5.47
2023-01-07T01:45:30.268Z,6.03
2023-01-07T01:48:00.259Z,5.60
2023-01-07T01:50:31.948Z,5.57
2023-01-07T01:53:08.578Z,4.90
2023-01-07T01:55:41.072Z,5.43
2023-01-07T01:58:10.462Z,5.23
2023-01-07T02:00:37.592Z,4.80
2023-01-07T02:03:06.949Z,5.30
2023-01-07T02:05:35.661Z,4.87
2023-01-07T02:08:02.844Z,5.40
2023-01-07T02:10:32.089Z,4.67
2023-01-07T02:13:02.435Z,4.80
2023-01-07T02:15:47.678Z,5.10
2023-01-07T02:18:28.348Z,4.13
2023-01-07T02:21:10.087Z,4.73
2023-01-07T02:23:51.480Z,4.20
2023-01-07T02:26:37.398Z,3.90
2023-01-07T02:29:10.536Z,4.47
2023-01-07T02:31:49.321Z,4.33
2023-01-07T02:34:26.209Z,3.97
2023-01-07T02:37:10.164Z,3.80
2023-01-07T02:39:37.535Z,3.80
2023-01-07T02:42:13.307Z,3.90
2023-01-07T02:44:46.346Z,3.97
2023-01-07T02:47:17.550Z,3.70
2023-01-07T02:49:47.638Z,3.70
2023-01-07T02:52:20.043Z,3.40
2023-01-07T02:54:52.312Z,3.80
2023-01-07T02:57:36.213Z,3.23
2023-01-07T03:00:14.078Z,3.30
2023-01-07T03:02:50.486Z,3.37
2023-01-07T03:05:24.461Z,3.40
2023-01-07T03:07:57.499Z,3.00
2023-01-07T03:10:40.864Z,3.43
2023-01-07T03:13:11.304Z,2.93
2023-01-07T03:15:38.366Z,3.00
2023-01-07T03:18:06.744Z,3.20
2023-01-07T03:20:35.098Z,3.03
2023-01-07T03:23:02.965Z,3.00
2023-01-07T03:25:32.007Z,3.00
2023-01-07T03:28:00.058Z,3.20
2023-01-07T03:30:27.721Z,3.13
2023-01-07T03:32:58.643Z,2.90
2023-01-07T03:35:25.879Z,2.90
2023-01-07T03:37:53.807Z,2.93
2023-01-07T03:40:21.144Z,2.60
2023-01-07T03:42:49.098Z,2.70
2023-01-07T03:45:18.146Z,2.40
2023-01-07T03:47:46.838Z,2.60
2023-01-07T03:50:14.061Z,2.70
2023-01-07T03:52:41.132Z,2.63
2023-01-07T03:55:08.513Z,2.20
2023-01-07T03:57:35.629Z,2.70
2023-01-07T04:00:03.255Z,2.03
2023-01-07T04:02:31.787Z,2.07
2023-01-07T04:04:59.037Z,2.30
2023-01-07T04:07:26.071Z,2.00
2023-01-07T04:09:53.217Z,2.00
2023-01-07T04:12:20.545Z,2.43
2023-01-07T04:14:47.597Z,2.60
2023-01-07T04:17:14.837Z,2.37
2023-01-07T04:19:42.010Z,2.37
2023-01-07T04:22:11.888Z,2.57
2023-01-07T04:24:38.940Z,2.57
2023-01-07T04:27:06.230Z,2.50
2023-01-07T04:29:33.385Z,2.63
2023-01-07T04:32:00.443Z,2.23
2023-01-07T04:34:27.507Z,2.07
2023-01-07T04:36:54.612Z,2.20
2023-01-07T04:39:21.809Z,2.40
2023-01-07T04:41:48.870Z,2.10
2023-01-07T04:44:17.518Z,2.30
2023-01-07T04:46:45.222Z,2.13
2023-01-07T04:49:12.491Z,2.03
2023-01-07T04:51:39.716Z,2.17
2023-01-07T04:54:06.968Z,2.10
2023-01-07T04:56:34.103Z,2.07
2023-01-07T04:59:01.340Z,2.00
2023-01-07T05:01:31.006Z,1.93
2023-01-07T05:03:58.243Z,2.20
2023-01-07T05:06:25.528Z,2.23
2023-01-07T05:08:52.656Z,2.00
2023-01-07T05:11:22.883Z,2.00
2023-01-07T05:13:50.300Z,1.80
2023-01-07T05:16:17.759Z,2.00
2023-01-07T05:18:45.085Z,2.10
2023-01-07T05:21:12.435Z,2.03
2023-01-07T05:23:39.886Z,2.07
2023-01-07T05:26:07.163Z,2.17
2023-01-07T05:28:34.213Z,1.83
2023-01-07T05:31:01.348Z,1.77
2023-01-07T05:33:28.874Z,1.70
2023-01-07T05:35:55.984Z,2.27
2023-01-07T05:38:23.049Z,2.10
2023-01-07T05:40:50.491Z,1.80
2023-01-07T05:43:17.835Z,2.20
2023-01-07T05:45:45.973Z,2.27
2023-01-07T05:48:13.721Z,2.67
2023-01-07T05:50:40.836Z,2.17
2023-01-07T05:53:07.907Z,2.37
2023-01-07T05:55:37.414Z,2.33
2023-01-07T05:58:04.701Z,1.93
2023-01-07T06:00:31.755Z,1.90
2023-01-07T06:02:58.796Z,1.87
2023-01-07T06:05:26.065Z,1.83
2023-01-07T06:07:53.119Z,1.70
2023-01-07T06:10:20.205Z,1.80
2023-01-07T06:12:47.231Z,1.67
2023-01-07T06:15:14.407Z,1.80
2023-01-07T06:17:41.451Z,1.67
2023-01-07T06:20:09.254Z,1.77
2023-01-07T06:22:36.643Z,1.80
2023-01-07T06:25:04.099Z,1.70
2023-01-07T06:27:31.235Z,1.90
2023-01-07T06:29:58.474Z,2.20
2023-01-07T06:32:25.624Z,1.90
2023-01-07T06:34:52.691Z,2.10
2023-01-07T06:37:19.824Z,2.10
2023-01-07T06:39:47.034Z,1.97
2023-01-07T06:42:14.183Z,2.00
2023-01-07T06:44:41.240Z,2.63
2023-01-07T06:47:08.297Z,2.17
2023-01-07T06:49:35.337Z,2.40
2023-01-07T06:52:02.457Z,2.23
2023-01-07T06:54:29.571Z,2.60
2023-01-07T06:56:56.650Z,2.53
2023-01-07T06:59:23.692Z,2.83
2023-01-07T07:01:51.995Z,2.30
2023-01-07T07:04:19.204Z,2.10
2023-01-07T07:06:46.286Z,2.30
2023-01-07T07:09:13.359Z,2.20
2023-01-07T07:11:40.517Z,2.20
2023-01-07T07:14:07.678Z,2.00
2023-01-07T07:16:34.783Z,1.90
2023-01-07T07:19:01.851Z,1.97
2023-01-07T07:21:28.987Z,2.60
2023-01-07T07:23:56.055Z,3.07
2023-01-07T07:26:23.090Z,2.77
2023-01-07T07:28:50.237Z,3.30
2023-01-07T07:31:17.472Z,2.43
2023-01-07T07:33:44.523Z,2.53
2023-01-07T07:36:11.688Z,2.83
2023-01-07T07:38:38.775Z,3.00
2023-01-07T07:41:06.057Z,3.20
2023-01-07T07:43:35.768Z,3.50
2023-01-07T07:46:02.807Z,2.50
2023-01-07T07:48:29.937Z,2.77
2023-01-07T07:50:57.108Z,2.60
2023-01-07T07:53:24.211Z,2.87
2023-01-07T07:55:53.140Z,2.87
2023-01-07T07:58:20.382Z,2.60
2023-01-07T08:00:47.444Z,2.17
2023-01-07T08:03:14.778Z,2.80
2023-01-07T08:05:43.210Z,2.33
2023-01-07T08:08:12.063Z,2.93
2023-01-07T08:10:39.330Z,2.00
2023-01-07T08:13:06.857Z,2.30
2023-01-07T08:15:33.922Z,3.37
2023-01-07T08:18:05.193Z,2.30
2023-01-07T08:20:32.352Z,2.43
2023-01-07T08:23:00.495Z,2.27
2023-01-07T08:25:28.059Z,2.10
2023-01-07T08:27:55.786Z,2.10
2023-01-07T08:30:22.899Z,2.00
2023-01-07T08:32:50.147Z,2.10
2023-01-07T08:35:17.782Z,2.20
2023-01-07T08:37:45.422Z,2.10
2023-01-07T08:40:13.159Z,2.10
2023-01-07T08:42:40.991Z,2.40
2023-01-07T08:45:09.259Z,2.57
2023-01-07T08:47:36.436Z,2.10
2023-01-07T08:50:04.310Z,1.80
2023-01-07T08:52:31.378Z,2.30
2023-01-07T08:54:58.428Z,2.40
2023-01-07T08:57:25.481Z,2.20
2023-01-07T08:59:52.514Z,2.70
2023-01-07T09:02:20.691Z,2.90
2023-01-07T09:04:47.810Z,2.73
2023-01-07T09:07:14.873Z,2.47
2023-01-07T09:09:42.986Z,2.50
2023-01-07T09:12:11.137Z,2.43
2023-01-07T09:14:38.331Z,2.47
2023-01-07T09:17:05.467Z,2.37
2023-01-07T09:19:32.520Z,2.97
2023-01-07T09:21:59.636Z,2.60
2023-01-07T09:24:26.677Z,3.00
2023-01-07T09:26:53.753Z,2.80
2023-01-07T09:29:25.192Z,2.30
2023-01-07T09:31:52.318Z,2.20
2023-01-07T09:34:19.506Z,2.67
2023-01-07T09:36:46.562Z,2.20
2023-01-07T09:39:13.805Z,2.47
2023-01-07T09:41:46.888Z,2.37
2023-01-07T09:44:24.798Z,2.50
2023-01-07T09:46:54.160Z,2.30
2023-01-07T09:49:24.129Z,2.57
2023-01-07T09:51:55.340Z,2.53
2023-01-07T09:54:27.649Z,2.07
2023-01-07T09:56:55.030Z,2.13
2023-01-07T09:59:22.292Z,2.50
2023-01-07T10:02:00.164Z,4.00
2023-01-07T10:04:49.825Z,3.33
2023-01-07T10:07:29.144Z,6.70
2023-01-07T10:09:56.231Z,2.30
2023-01-07T10:12:27.502Z,3.07
2023-01-07T10:15:00.762Z,1.57
2023-01-07T10:17:40.194Z,2.80
2023-01-07T10:20:10.302Z,1.83
2023-01-07T10:22:39.966Z,1.70
2023-01-07T10:25:15.764Z,2.20
2023-01-07T10:27:43.860Z,1.90
2023-01-07T10:30:16.556Z,2.80
2023-01-07T10:32:44.243Z,2.90
2023-01-07T10:35:19.160Z,1.40
2023-01-07T10:37:46.277Z,4.00
2023-01-07T10:40:13.298Z,1.60
2023-01-07T10:42:55.183Z,1.90
2023-01-07T10:46:00.905Z,3.47
2023-01-07T10:49:00.610Z,1.70
2023-01-07T10:51:48.267Z,1.40
2023-01-07T10:54:24.329Z,1.40
2023-01-07T10:56:52.872Z,1.43
2023-01-07T10:59:21.162Z,2.10
2023-01-07T11:01:52.415Z,2.30
2023-01-07T11:04:19.753Z,1.43
2023-01-07T11:07:05.608Z,2.17
2023-01-07T11:09:35.828Z,1.67
2023-01-07T11:12:16.681Z,1.40
2023-01-07T11:14:44.207Z,1.33
2023-01-07T11:17:16.421Z,1.50
2023-01-07T11:19:52.346Z,1.40
2023-01-07T11:22:39.689Z,1.67
2023-01-07T11:25:26.954Z,3.67
2023-01-07T11:27:54.126Z,3.00
2023-01-07T11:30:26.457Z,2.10
2023-01-07T11:33:04.258Z,2.00
2023-01-07T11:35:31.647Z,1.80
2023-01-07T11:37:59.563Z,1.80
2023-01-07T11:40:30.970Z,1.40
2023-01-07T11:43:02.981Z,1.30
2023-01-07T11:45:37.625Z,1.43
2023-01-07T11:48:18.431Z,2.00
2023-01-07T11:50:54.677Z,1.87
2023-01-07T11:53:21.679Z,1.90
2023-01-07T11:55:57.837Z,2.37
2023-01-07T11:58:28.212Z,1.70
2023-01-07T12:01:12.418Z,1.90
2023-01-07T12:03:40.805Z,2.33
2023-01-07T12:06:17.035Z,2.23
2023-01-07T12:08:51.266Z,2.10
2023-01-07T12:11:18.440Z,2.43
2023-01-07T12:13:49.934Z,2.30
2023-01-07T12:16:17.647Z,2.70
2023-01-07T12:18:52.142Z,2.40
2023-01-07T12:21:37.989Z,2.50
2023-01-07T12:24:32.064Z,2.97
2023-01-07T12:27:05.389Z,2.47
2023-01-07T12:29:52.233Z,3.10
2023-01-07T12:32:22.360Z,2.60
2023-01-07T12:35:14.348Z,2.27
2023-01-07T12:37:49.585Z,2.30
2023-01-07T12:40:23.310Z,2.50
2023-01-07T12:42:53.826Z,2.40
2023-01-07T12:45:28.238Z,2.30
2023-01-07T12:48:00.295Z,2.57
2023-01-07T12:50:30.545Z,1.90
2023-01-07T12:53:06.901Z,2.00
2023-01-07T12:55:38.690Z,1.90
2023-01-07T12:58:32.730Z,1.57
2023-01-07T13:01:03.273Z,1.90
2023-01-07T13:03:33.552Z,1.97
2023-01-07T13:06:05.920Z,2.20
2023-01-07T13:08:38.787Z,2.40
2023-01-07T13:11:08.635Z,2.23
2023-01-07T13:13:41.872Z,1.70
2023-01-07T13:16:11.384Z,1.77
2023-01-07T13:18:39.649Z,2.10
2023-01-07T13:21:14.040Z,1.77
2023-01-07T13:23:43.959Z,1.70
2023-01-07T13:26:13.870Z,1.50
2023-01-07T13:28:40.976Z,1.60
2023-01-07T13:31:14.152Z,1.60
2023-01-07T13:33:59.385Z,1.90
2023-01-07T13:36:29.270Z,1.70
2023-01-07T13:39:02.252Z,1.47
2023-01-07T13:41:59.151Z,1.43
2023-01-07T13:44:44.395Z,1.87
2023-01-07T13:47:13.093Z,1.50
2023-01-07T13:49:40.387Z,1.83
2023-01-07T13:52:25.411Z,1.60
2023-01-07T13:54:52.470Z,2.40
2023-01-07T13:57:31.802Z,2.10
2023-01-07T14:00:00.113Z,1.80
2023-01-07T14:02:30.601Z,1.60
2023-01-07T14:05:26.865Z,1.83
2023-01-07T14:07:56.267Z,1.70
2023-01-07T14:10:29.017Z,1.77
2023-01-07T14:13:17.274Z,1.43
2023-01-07T14:16:02.793Z,1.80
2023-01-07T14:18:48.375Z,1.80
2023-01-07T14:21:27.411Z,1.60
2023-01-07T14:24:03.277Z,1.80
2023-01-07T14:26:37.270Z,1.70
2023-01-07T14:29:24.319Z,1.70
2023-01-07T14:31:54.711Z,1.33
2023-01-07T14:34:27.415Z,1.80
2023-01-07T14:37:08.940Z,1.97
2023-01-07T14:39:44.377Z,1.30
2023-01-07T14:42:17.459Z,1.50
2023-01-07T14:44:44.652Z,1.80
2023-01-07T14:47:12.372Z,2.00
2023-01-07T14:49:48.726Z,2.10
2023-01-07T14:52:34.674Z,2.00
2023-01-07T14:55:13.928Z,1.60
2023-01-07T14:58:04.044Z,2.00
2023-01-07T15:00:51.415Z,2.50
2023-01-07T15:03:21.664Z,2.23
2023-01-07T15:05:55.020Z,2.93
2023-01-07T15:08:41.886Z,2.40
2023-01-07T15:11:30.842Z,2.57
2023-01-07T15:14:18.799Z,2.90
2023-01-07T15:16:49.832Z,2.20
2023-01-07T15:19:17.283Z,2.23
2023-01-07T15:22:06.074Z,2.37
2023-01-07T15:24:37.305Z,1.90
2023-01-07T15:27:24.185Z,2.13
2023-01-07T15:29:51.211Z,3.10
2023-01-07T15:32:36.831Z,2.80
2023-01-07T15:35:15.511Z,2.50
2023-01-07T15:37:46.782Z,2.13
2023-01-07T15:40:17.063Z,2.20
2023-01-07T15:42:45.047Z,2.00
2023-01-07T15:45:17.058Z,2.60
2023-01-07T15:47:44.286Z,3.10
2023-01-07T15:50:30.173Z,2.60
2023-01-07T15:52:59.842Z,2.73
2023-01-07T15:55:37.834Z,2.40
2023-01-07T15:58:06.379Z,2.40
2023-01-07T16:00:34.769Z,2.10
2023-01-07T16:03:02.348Z,2.50
2023-01-07T16:05:29.744Z,2.60
2023-01-07T16:08:00.829Z,2.30
2023-01-07T16:10:32.516Z,1.97
2023-01-07T16:13:06.737Z,2.30
2023-01-07T16:15:34.959Z,2.17
2023-01-07T16:18:03.749Z,2.53
2023-01-07T16:20:32.567Z,2.63
2023-01-07T16:23:11.459Z,2.43
2023-01-07T16:25:44.868Z,3.00
2023-01-07T16:28:16.680Z,2.50
2023-01-07T16:30:44.375Z,2.90
2023-01-07T16:33:22.050Z,2.57
2023-01-07T16:35:50.651Z,7.17
2023-01-07T16:38:19.899Z,3.53
2023-01-07T16:40:48.049Z,3.60
2023-01-07T16:43:33.596Z,3.77
2023-01-07T16:46:19.622Z,2.80
2023-01-07T16:48:48.230Z,2.17
2023-01-07T16:51:35.597Z,2.87
2023-01-07T16:54:21.334Z,2.43
2023-01-07T16:57:09.813Z,2.87
2023-01-07T16:59:49.530Z,2.10
2023-01-07T17:02:16.532Z,2.43
2023-01-07T17:04:43.671Z,2.13
2023-01-07T17:07:19.375Z,2.43
2023-01-07T17:09:46.610Z,3.23
2023-01-07T17:12:32.172Z,3.20
2023-01-07T17:15:00.536Z,3.10
2023-01-07T17:17:31.951Z,2.97
2023-01-07T17:20:19.872Z,3.13
2023-01-07T17:22:47.237Z,2.87
2023-01-07T17:25:14.428Z,2.73
2023-01-07T17:28:13.328Z,3.20
2023-01-07T17:30:41.312Z,2.57
2023-01-07T17:33:13.410Z,2.60
2023-01-07T17:35:44.882Z,2.37
2023-01-07T17:38:15.766Z,2.83
2023-01-07T17:40:43.296Z,3.10
2023-01-07T17:43:37.736Z,3.80
2023-01-07T17:46:06.408Z,4.20
2023-01-07T17:48:34.150Z,3.57
2023-01-07T17:51:01.512Z,3.00
2023-01-07T17:53:30.702Z,3.70
2023-01-07T17:55:57.821Z,5.37
2023-01-07T17:58:29.359Z,4.30
2023-01-07T18:00:56.993Z,3.17
2023-01-07T18:03:24.578Z,3.70
2023-01-07T18:05:51.933Z,3.93
2023-01-07T18:08:19.164Z,3.43
2023-01-07T18:11:05.538Z,3.50
2023-01-07T18:13:32.579Z,3.90
2023-01-07T18:15:59.943Z,3.67
2023-01-07T18:18:31.240Z,4.20
2023-01-07T18:20:58.882Z,3.13
2023-01-07T18:23:26.166Z,3.30
2023-01-07T18:25:53.382Z,3.50
2023-01-07T18:28:20.481Z,3.03
2023-01-07T18:30:47.934Z,3.67
2023-01-07T18:33:15.031Z,3.30
2023-01-07T18:35:42.257Z,3.43
2023-01-07T18:38:13.090Z,4.10
2023-01-07T18:40:40.180Z,3.63
2023-01-07T18:43:07.584Z,3.47
2023-01-07T18:45:34.765Z,2.90
2023-01-07T18:48:02.035Z,3.70
2023-01-07T18:50:30.129Z,3.23
2023-01-07T18:52:57.220Z,3.13
2023-01-07T18:55:26.872Z,3.23
2023-01-07T18:57:54.070Z,3.70
2023-01-07T19:00:21.220Z,3.77
2023-01-07T19:02:48.426Z,3.60
2023-01-07T19:05:15.637Z,3.70
2023-01-07T19:07:43.505Z,3.97
2023-01-07T19:10:10.832Z,4.13
2023-01-07T19:12:37.907Z,3.60
2023-01-07T19:15:05.258Z,3.93
2023-01-07T19:17:32.619Z,3.97
2023-01-07T19:19:59.733Z,4.17
2023-01-07T19:22:26.792Z,3.60
2023-01-07T19:24:56.571Z,3.57
2023-01-07T19:27:24.284Z,3.80
2023-01-07T19:29:51.395Z,3.73
2023-01-07T19:32:18.486Z,3.60
2023-01-07T19:34:45.663Z,3.83
2023-01-07T19:37:12.873Z,3.80
2023-01-07T19:39:40.509Z,3.70
2023-01-07T19:42:08.649Z,3.63
2023-01-07T19:44:37.801Z,4.23
2023-01-07T19:47:05.056Z,3.93
2023-01-07T19:49:32.086Z,3.50
2023-01-07T19:51:59.201Z,3.67
2023-01-07T19:54:26.584Z,3.43
2023-01-07T19:56:54.315Z,3.67
2023-01-07T19:59:21.423Z,3.67
2023-01-07T20:01:49.840Z,3.73
2023-01-07T20:04:17.119Z,3.80
2023-01-07T20:06:44.799Z,3.70
2023-01-07T20:09:13.370Z,3.90
2023-01-07T20:11:42.498Z,3.33
2023-01-07T20:14:10.583Z,4.57
2023-01-07T20:16:39.577Z,3.77
2023-01-07T20:19:06.842Z,3.57
2023-01-07T20:21:34.109Z,3.63
2023-01-07T20:24:01.383Z,3.47
2023-01-07T20:26:30.141Z,4.03
2023-01-07T20:28:57.733Z,3.60
2023-01-07T20:31:25.711Z,3.50
2023-01-07T20:33:55.402Z,3.20
2023-01-07T20:36:24.042Z,3.70
2023-01-07T20:38:51.400Z,3.50
2023-01-07T20:41:20.159Z,3.23
2023-01-07T20:43:51.111Z,3.60
2023-01-07T20:46:18.530Z,3.57
2023-01-07T20:48:46.205Z,2.83
2023-01-07T20:51:13.879Z,3.70
2023-01-07T20:53:41.277Z,3.33
2023-01-07T20:56:08.663Z,2.93
2023-01-07T20:58:36.735Z,3.40
2023-01-07T21:01:07.980Z,3.30
2023-01-07T21:03:35.954Z,2.87
2023-01-07T21:06:03.188Z,3.60
2023-01-07T21:08:30.278Z,3.20
2023-01-07T21:10:57.371Z,3.60
2023-01-07T21:13:24.754Z,3.10
2023-01-07T21:15:52.330Z,2.97
2023-01-07T21:18:19.648Z,2.83
2023-01-07T21:20:47.984Z,3.17
2023-01-07T21:23:15.245Z,3.30
2023-01-07T21:25:46.969Z,3.20
2023-01-07T21:28:14.475Z,2.93
2023-01-07T21:30:41.892Z,2.70
2023-01-07T21:33:09.038Z,3.20
2023-01-07T21:35:36.238Z,3.07
2023-01-07T21:38:03.295Z,3.30
2023-01-07T21:40:30.401Z,2.73
2023-01-07T21:42:57.473Z,3.67
2023-01-07T21:45:24.712Z,3.17
2023-01-07T21:47:51.871Z,3.20
2023-01-07T21:50:19.021Z,3.10
2023-01-07T21:52:46.085Z,3.17
2023-01-07T21:55:13.234Z,3.20
2023-01-07T21:57:40.445Z,3.23
2023-01-07T22:00:07.865Z,2.80
2023-01-07T22:02:37.726Z,3.37
2023-01-07T22:05:04.905Z,2.67
2023-01-07T22:07:32.066Z,3.70
2023-01-07T22:09:59.217Z,2.80
2023-01-07T22:12:26.300Z,3.37
2023-01-07T22:14:53.389Z,3.97
2023-01-07T22:17:20.531Z,3.17
2023-01-07T22:19:47.761Z,3.20
2023-01-07T22:22:16.633Z,3.47
2023-01-07T22:24:45.163Z,3.23
2023-01-07T22:27:12.263Z,3.20
2023-01-07T22:29:39.377Z,3.53
2023-01-07T22:32:06.440Z,3.33
2023-01-07T22:34:33.571Z,2.70
2023-01-07T22:37:15.070Z,3.27
2023-01-07T22:39:44.660Z,3.00
2023-01-07T22:42:41.074Z,3.23
2023-01-07T22:45:13.907Z,3.10
2023-01-07T22:47:42.742Z,3.03
2023-01-07T22:50:10.221Z,3.10
2023-01-07T22:52:38.660Z,2.90
2023-01-07T22:55:06.046Z,3.23
2023-01-07T22:57:34.194Z,3.10
2023-01-07T23:00:01.342Z,3.03
2023-01-07T23:02:29.025Z,3.00
2023-01-07T23:04:56.151Z,3.17
2023-01-07T23:07:23.292Z,3.40
2023-01-07T23:09:51.627Z,3.00
2023-01-07T23:12:20.287Z,2.93
2023-01-07T23:14:47.415Z,2.70
2023-01-07T23:17:14.505Z,3.13
2023-01-07T23:19:41.560Z,2.80
2023-01-07T23:22:08.623Z,2.60
2023-01-07T23:24:37.110Z,2.43
2023-01-07T23:27:04.277Z,2.60
2023-01-07T23:29:31.348Z,3.20
2023-01-07T23:31:58.444Z,2.70
2023-01-07T23:34:25.580Z,3.07
2023-01-07T23:36:52.613Z,3.03
2023-01-07T23:39:19.705Z,2.60
2023-01-07T23:41:46.838Z,3.00
2023-01-07T23:44:14.128Z,2.63
2023-01-07T23:46:41.212Z,3.00
2023-01-07T23:49:08.331Z,2.77
2023-01-07T23:51:35.621Z,2.83
2023-01-07T23:54:02.692Z,3.07
2023-01-07T23:56:29.875Z,2.87
2023-01-07T23:58:57.267Z,2.77
